createdAt,value
2023-03-26T00:00:52.106Z,89.15
2023-03-26T00:01:52.100Z,89.76
2023-03-26T00:02:52.100Z,89.87
2023-03-26T00:03:52.084Z,88.64
2023-03-26T00:04:52.065Z,90.48
2023-03-26T00:05:52.296Z,89.97
2023-03-26T00:06:52.033Z,89.97
2023-03-26T00:07:52.037Z,90.22
2023-03-26T00:08:52.041Z,90.18
2023-03-26T00:09:51.997Z,89.70
2023-03-26T00:10:52.025Z,90.01
2023-03-26T00:11:51.953Z,91.86
2023-03-26T00:12:51.974Z,89.81
2023-03-26T00:13:51.983Z,89.97
2023-03-26T00:14:51.982Z,89.60
2023-03-26T00:15:51.951Z,90.73
2023-03-26T00:16:51.970Z,90.80
2023-03-26T00:17:51.992Z,89.70
2023-03-26T00:18:51.912Z,89.87
2023-03-26T00:19:51.911Z,90.59
2023-03-26T00:20:51.897Z,89.15
2023-03-26T00:21:51.844Z,87.71
2023-03-26T00:22:51.886Z,89.97
2023-03-26T00:23:51.823Z,89.56
2023-03-26T00:24:51.841Z,89.66
2023-03-26T00:25:51.966Z,88.95
2023-03-26T00:26:51.839Z,88.43
2023-03-26T00:27:51.784Z,88.53
2023-03-26T00:28:51.876Z,90.59
2023-03-26T00:29:51.763Z,89.97
2023-03-26T00:30:51.800Z,89.36
2023-03-26T00:31:51.788Z,89.66
2023-03-26T00:32:53.768Z,88.64
2023-03-26T00:33:51.741Z,90.48
2023-03-26T00:34:51.790Z,90.89
2023-03-26T00:35:51.920Z,90.18
2023-03-26T00:36:51.728Z,90.18
2023-03-26T00:37:51.706Z,88.95
2023-03-26T00:38:51.716Z,91.10
2023-03-26T00:39:51.654Z,88.64
2023-03-26T00:40:51.687Z,88.53
2023-03-26T00:41:51.656Z,89.66
2023-03-26T00:42:51.660Z,90.38
2023-03-26T00:43:51.684Z,89.46
2023-03-26T00:44:51.650Z,89.87
2023-03-26T00:45:51.706Z,89.15
2023-03-26T00:46:51.615Z,89.87
2023-03-26T00:47:51.656Z,89.04
2023-03-26T00:48:51.622Z,90.48
2023-03-26T00:49:51.629Z,91.10
2023-03-26T00:50:51.597Z,90.28
2023-03-26T00:51:51.528Z,90.18
2023-03-26T00:52:51.551Z,89.46
2023-03-26T00:53:51.517Z,89.46
2023-03-26T00:54:51.532Z,90.48
2023-03-26T00:55:51.585Z,90.18
2023-03-26T00:56:51.533Z,90.38
2023-03-26T00:57:51.462Z,89.25
2023-03-26T00:58:51.512Z,90.80
2023-03-26T00:59:51.464Z,90.69
2023-03-26T01:00:51.465Z,89.97
2023-03-26T01:01:51.513Z,89.76
2023-03-26T01:02:51.555Z,89.46
2023-03-26T01:04:05.238Z,89.56
2023-03-26T01:04:51.455Z,89.36
2023-03-26T01:05:51.597Z,89.56
2023-03-26T01:06:51.397Z,91.00
2023-03-26T01:07:51.350Z,88.23
2023-03-26T01:08:51.356Z,90.80
2023-03-26T01:09:51.357Z,89.87
2023-03-26T01:10:51.357Z,90.08
2023-03-26T01:11:51.319Z,89.46
2023-03-26T01:12:51.331Z,88.02
2023-03-26T01:13:51.304Z,87.61
2023-03-26T01:14:52.075Z,90.69
2023-03-26T01:15:51.421Z,89.56
2023-03-26T01:16:51.306Z,90.89
2023-03-26T01:17:51.349Z,90.69
2023-03-26T01:18:51.277Z,89.56
2023-03-26T01:19:51.249Z,91.93
2023-03-26T01:20:51.235Z,89.56
2023-03-26T01:21:51.214Z,90.89
2023-03-26T01:22:51.217Z,90.22
2023-03-26T01:23:51.215Z,91.20
2023-03-26T01:24:51.187Z,91.82
2023-03-26T01:25:51.216Z,89.81
2023-03-26T01:26:51.172Z,91.86
2023-03-26T01:27:51.137Z,89.91
2023-03-26T01:28:51.145Z,88.78
2023-03-26T01:29:51.125Z,90.94
2023-03-26T06:01:08.130Z,95.56
2023-03-26T06:02:09.102Z,96.39
2023-03-26T06:03:09.204Z,95.46
2023-03-26T06:04:09.224Z,95.67
2023-03-26T06:05:09.045Z,94.54
2023-03-26T06:06:09.096Z,96.18
2023-03-26T06:07:09.024Z,95.05
2023-03-26T06:08:09.034Z,95.46
2023-03-26T06:09:09.013Z,95.05
2023-03-26T06:10:09.016Z,92.89
2023-03-26T06:11:08.991Z,94.02
2023-03-26T06:12:09.019Z,93.10
2023-03-26T06:13:08.979Z,93.51
2023-03-26T06:14:08.965Z,93.20
2023-03-26T06:15:08.970Z,93.20
2023-03-26T06:16:08.971Z,93.20
2023-03-26T06:17:08.990Z,93.71
2023-03-26T06:18:08.979Z,95.67
2023-03-26T06:19:08.946Z,95.56
2023-03-26T06:20:09.652Z,94.43
2023-03-26T06:21:08.886Z,94.02
2023-03-26T06:22:08.912Z,94.02
2023-03-26T06:23:08.896Z,94.02
2023-03-26T06:24:08.871Z,93.40
2023-03-26T06:25:08.839Z,93.51
2023-03-26T06:26:08.851Z,93.30
2023-03-26T06:27:08.836Z,95.56
2023-03-26T06:28:08.835Z,95.01
2023-03-26T06:29:08.814Z,93.87
2023-03-26T06:30:08.829Z,93.46
2023-03-26T06:31:08.811Z,92.95
2023-03-26T06:32:18.938Z,93.67
2023-03-26T06:33:08.784Z,93.46
2023-03-26T06:34:08.773Z,93.67
2023-03-26T06:35:08.779Z,93.46
2023-03-26T06:36:08.765Z,93.57
2023-03-26T06:37:08.732Z,93.46
2023-03-26T06:38:08.732Z,92.64
2023-03-26T06:39:08.729Z,93.67
2023-03-26T06:40:08.735Z,93.05
2023-03-26T06:41:08.683Z,93.26
2023-03-26T06:42:08.680Z,92.64
2023-03-26T06:43:10.922Z,92.95
2023-03-26T06:44:08.659Z,94.39
2023-03-26T06:45:08.677Z,93.26
2023-03-26T06:46:08.696Z,93.05
2023-03-26T06:47:08.616Z,92.44
2023-03-26T06:48:08.616Z,93.77
2023-03-26T06:49:08.602Z,94.04
2023-03-26T06:50:08.594Z,93.12
2023-03-26T06:51:08.578Z,93.42
2023-03-26T06:52:08.580Z,94.04
2023-03-26T06:53:08.548Z,93.01
2023-03-26T06:54:08.554Z,91.16
2023-03-26T06:55:08.552Z,92.70
2023-03-26T06:56:09.212Z,92.60
2023-03-26T06:57:08.574Z,92.60
2023-03-26T06:58:08.520Z,92.08
2023-03-26T06:59:08.483Z,92.40
2023-03-26T07:00:08.495Z,92.70
2023-03-26T07:01:08.578Z,92.70
2023-03-26T07:02:08.477Z,93.63
2023-03-26T07:03:08.448Z,91.88
2023-03-26T07:04:08.529Z,91.67
2023-03-26T07:05:08.418Z,92.19
2023-03-26T07:06:08.426Z,91.88
2023-03-26T07:07:08.416Z,92.86
2023-03-26T07:08:08.438Z,92.66
2023-03-26T07:09:08.387Z,91.84
2023-03-26T07:10:08.400Z,91.02
2023-03-26T07:11:08.386Z,91.57
2023-03-26T07:12:08.379Z,91.22
2023-03-26T07:13:08.341Z,91.53
2023-03-26T07:14:08.356Z,93.38
2023-03-26T07:15:08.330Z,93.79
2023-03-26T07:16:08.373Z,93.17
2023-03-26T07:17:08.310Z,92.55
2023-03-26T07:18:08.304Z,92.46
2023-03-26T07:19:08.305Z,91.33
2023-03-26T07:20:08.279Z,90.85
2023-03-26T07:21:08.268Z,93.38
2023-03-26T07:22:08.271Z,93.17
2023-03-26T07:23:08.237Z,92.97
2023-03-26T07:24:08.247Z,92.35
2023-03-26T07:25:08.216Z,94.20
2023-03-26T07:26:08.218Z,92.66
2023-03-26T07:27:08.214Z,92.35
2023-03-26T07:28:08.192Z,92.97
2023-03-26T07:29:08.171Z,93.59
2023-03-26T07:30:08.186Z,94.61
2023-03-26T07:31:08.168Z,93.79
2023-03-26T07:32:08.242Z,93.38
2023-03-26T07:33:08.133Z,93.99
2023-03-26T07:34:08.133Z,93.79
2023-03-26T07:35:08.108Z,95.32
2023-03-26T07:36:08.120Z,94.61
2023-03-26T07:37:08.102Z,96.25
2023-03-26T07:38:08.099Z,95.84
2023-03-26T07:39:08.070Z,95.12
2023-03-26T07:40:08.083Z,95.32
2023-03-26T07:41:08.038Z,96.45
2023-03-26T07:42:08.043Z,96.77
2023-03-26T07:43:08.057Z,96.66
2023-03-26T07:44:08.054Z,97.28
2023-03-26T07:45:08.009Z,97.48
2023-03-26T07:46:08.064Z,97.58
2023-03-26T07:47:08.000Z,97.58
2023-03-26T07:48:07.982Z,98.30
2023-03-26T07:49:07.948Z,97.07
2023-03-26T07:50:07.985Z,97.53
2023-03-26T07:51:07.962Z,98.14
2023-03-26T07:52:07.997Z,98.86
2023-03-26T07:53:07.912Z,98.86
2023-03-26T07:54:07.909Z,98.45
2023-03-26T07:55:07.935Z,98.55
2023-03-26T07:56:07.982Z,98.86
2023-03-26T07:57:07.978Z,99.48
2023-03-26T07:58:07.880Z,99.38
2023-03-26T07:59:07.858Z,99.48
2023-03-26T08:00:07.867Z,99.27
2023-03-26T08:01:07.847Z,99.99
2023-03-26T08:02:07.832Z,99.58
2023-03-26T08:03:07.963Z,99.58
2023-03-26T08:04:25.521Z,99.48
2023-03-26T08:05:07.880Z,99.99
2023-03-26T08:06:07.771Z,99.89
2023-03-26T08:07:07.790Z,99.99
2023-03-26T08:08:07.771Z,99.68
2023-03-26T08:09:07.825Z,99.48
2023-03-26T08:10:07.774Z,99.79
2023-03-26T08:11:07.735Z,99.99
2023-03-26T08:12:07.708Z,99.99
2023-03-26T08:13:07.719Z,99.99
2023-03-26T08:14:07.694Z,99.99
2023-03-26T08:15:07.748Z,99.99
2023-03-26T08:16:07.710Z,99.99
2023-03-26T08:17:07.797Z,99.99
2023-03-26T08:18:07.690Z,99.48
2023-03-26T08:19:07.644Z,99.89
2023-03-26T08:20:07.659Z,99.99
2023-03-26T08:21:07.654Z,99.68
2023-03-26T08:22:07.608Z,99.99
2023-03-26T08:23:07.617Z,99.99
2023-03-26T08:24:07.572Z,99.99
2023-03-26T08:25:07.602Z,99.99
2023-03-26T08:26:07.574Z,99.99
2023-03-26T08:27:07.594Z,99.99
2023-03-26T08:28:07.555Z,99.99
2023-03-26T08:29:07.551Z,99.99
2023-03-26T08:30:07.533Z,99.99
2023-03-26T08:31:07.550Z,99.99
2023-03-26T08:32:07.496Z,99.99
2023-03-26T08:33:07.567Z,99.99
2023-03-26T08:34:07.481Z,99.99
2023-03-26T08:35:07.508Z,99.99
2023-03-26T08:36:07.501Z,99.99
2023-03-26T08:37:07.471Z,99.99
2023-03-26T08:38:07.432Z,99.99
2023-03-26T08:39:07.462Z,99.99
2023-03-26T08:40:07.418Z,99.99
2023-03-26T08:41:07.426Z,99.99
2023-03-26T08:42:07.387Z,99.99
2023-03-26T08:43:07.399Z,99.99
2023-03-26T08:44:07.414Z,99.99
2023-03-26T08:45:07.394Z,99.99
2023-03-26T08:46:07.372Z,99.99
2023-03-26T08:47:07.356Z,99.99
2023-03-26T08:48:07.340Z,99.99
2023-03-26T08:49:07.341Z,99.99
2023-03-26T08:50:07.352Z,99.99
2023-03-26T08:51:07.343Z,99.99
2023-03-26T08:52:07.293Z,99.99
2023-03-26T08:53:07.303Z,99.99
2023-03-26T08:54:07.259Z,99.99
2023-03-26T08:55:07.313Z,99.99
2023-03-26T08:56:07.318Z,99.99
2023-03-26T08:57:07.290Z,99.99
2023-03-26T08:58:07.223Z,99.99
2023-03-26T08:59:07.227Z,99.99
2023-03-26T09:00:07.206Z,99.99
2023-03-26T09:01:07.231Z,99.99
2023-03-26T09:02:07.369Z,99.99
2023-03-26T09:03:07.204Z,99.99
2023-03-26T09:04:07.247Z,99.99
2023-03-26T09:05:07.188Z,99.99
2023-03-26T09:06:07.183Z,99.99
2023-03-26T09:07:07.166Z,99.99
2023-03-26T09:08:07.180Z,99.99
2023-03-26T09:09:07.106Z,99.99
2023-03-26T09:10:07.165Z,99.99
2023-03-26T09:11:07.168Z,99.99
2023-03-26T09:12:07.173Z,99.99
2023-03-26T09:13:07.105Z,99.99
2023-03-26T09:14:07.180Z,99.99
2023-03-26T09:15:07.062Z,99.99
2023-03-26T09:16:07.064Z,99.99
2023-03-26T09:17:07.042Z,99.99
2023-03-26T09:18:07.039Z,99.99
2023-03-26T09:19:07.050Z,99.99
2023-03-26T09:20:07.043Z,99.99
2023-03-26T09:21:06.985Z,99.99
2023-03-26T09:22:06.974Z,99.99
2023-03-26T09:23:06.975Z,99.99
2023-03-26T09:24:06.982Z,99.99
2023-03-26T09:25:06.965Z,99.99
2023-03-26T09:26:06.926Z,99.99
2023-03-26T09:27:06.932Z,99.99
2023-03-26T09:28:06.908Z,99.99
2023-03-26T09:29:06.946Z,99.99
2023-03-26T09:30:06.951Z,99.99
2023-03-26T09:31:06.957Z,99.99
2023-03-26T09:32:06.864Z,99.99
2023-03-26T09:33:06.918Z,99.99
2023-03-26T09:34:06.891Z,99.99
2023-03-26T09:35:06.863Z,99.99
2023-03-26T09:36:06.862Z,99.99
2023-03-26T09:37:06.858Z,99.99
2023-03-26T09:38:06.828Z,99.99
2023-03-26T09:39:06.809Z,99.99
2023-03-26T09:40:06.808Z,99.99
2023-03-26T09:41:06.808Z,99.99
2023-03-26T09:42:06.768Z,99.99
2023-03-26T09:43:06.756Z,99.99
2023-03-26T09:44:06.750Z,99.99
2023-03-26T09:45:06.772Z,99.99
2023-03-26T09:46:06.765Z,99.99
2023-03-26T09:47:06.777Z,99.99
2023-03-26T09:48:06.726Z,99.99
2023-03-26T09:49:06.736Z,99.99
2023-03-26T09:50:06.677Z,99.99
2023-03-26T09:51:06.684Z,99.99
2023-03-26T09:52:06.669Z,99.99
2023-03-26T09:53:06.702Z,99.99
2023-03-26T09:54:06.662Z,99.99
2023-03-26T09:55:06.624Z,99.99
2023-03-26T09:56:06.623Z,99.99
2023-03-26T09:57:06.706Z,99.99
2023-03-26T09:58:06.603Z,99.99
2023-03-26T09:59:06.617Z,99.99
2023-03-26T10:00:06.583Z,99.99
2023-03-26T10:01:06.611Z,99.99
2023-03-26T10:02:06.544Z,99.99
2023-03-26T10:03:06.616Z,99.99
2023-03-26T10:04:06.529Z,99.99
2023-03-26T10:05:06.592Z,99.99
2023-03-26T10:06:06.501Z,99.99
2023-03-26T10:07:06.524Z,99.99
2023-03-26T10:08:06.477Z,99.99
2023-03-26T10:09:06.507Z,99.99
2023-03-26T10:10:06.476Z,99.99
2023-03-26T10:11:06.481Z,99.99
2023-03-26T10:12:06.513Z,99.99
2023-03-26T10:13:14.529Z,99.99
2023-03-26T10:14:06.422Z,99.99
2023-03-26T10:15:06.436Z,99.99
2023-03-26T10:16:06.442Z,99.99
2023-03-26T10:17:06.566Z,99.99
2023-03-26T10:18:28.258Z,99.99
2023-03-26T10:19:06.376Z,99.99
2023-03-26T10:20:06.372Z,99.99
2023-03-26T10:21:06.367Z,99.99
2023-03-26T10:22:06.373Z,99.99
2023-03-26T10:23:06.347Z,99.99
2023-03-26T10:24:06.307Z,99.99
2023-03-26T10:25:06.320Z,99.99
2023-03-26T10:26:06.292Z,99.99
2023-03-26T10:27:10.386Z,99.99
2023-03-26T10:28:06.306Z,99.99
2023-03-26T10:29:06.287Z,99.99
2023-03-26T10:30:06.280Z,99.99
2023-03-26T10:31:06.320Z,99.99
2023-03-26T10:32:06.284Z,99.99
2023-03-26T10:33:06.253Z,99.99
2023-03-26T10:34:06.326Z,99.99
2023-03-26T10:35:06.245Z,99.99
2023-03-26T10:36:06.247Z,99.99
2023-03-26T10:37:06.201Z,99.99
2023-03-26T10:38:06.162Z,99.99
2023-03-26T10:39:06.170Z,99.99
2023-03-26T10:40:06.226Z,99.99
2023-03-26T10:41:06.163Z,98.62
2023-03-26T10:42:06.128Z,98.83
2023-03-26T10:43:06.134Z,98.83
2023-03-26T10:44:08.806Z,98.32
2023-03-26T10:45:07.424Z,98.72
2023-03-26T10:46:06.194Z,98.93
2023-03-26T10:47:06.078Z,99.80
2023-03-26T10:48:06.067Z,99.70
2023-03-26T10:49:06.060Z,99.80
2023-03-26T10:50:06.049Z,98.58
2023-03-26T10:51:06.039Z,98.37
2023-03-26T10:52:06.029Z,98.78
2023-03-26T10:53:06.042Z,98.88
2023-03-26T10:54:05.994Z,98.88
2023-03-26T10:55:06.052Z,99.09
2023-03-26T10:56:05.973Z,98.83
2023-03-26T10:57:06.129Z,98.63
2023-03-26T10:58:05.959Z,98.53
2023-03-26T10:59:05.943Z,97.50
2023-03-26T11:00:05.942Z,97.30
2023-03-26T11:01:06.326Z,98.33
2023-03-26T11:02:05.932Z,98.33
2023-03-26T11:03:05.935Z,98.12
2023-03-26T11:04:05.907Z,98.58
2023-03-26T11:05:05.940Z,97.87
2023-03-26T11:06:05.877Z,98.99
2023-03-26T11:07:05.885Z,99.41
2023-03-26T11:08:05.887Z,96.23
2023-03-26T11:09:05.875Z,96.13
2023-03-26T11:10:05.846Z,97.15
2023-03-26T11:11:05.827Z,96.74
2023-03-26T11:12:25.740Z,96.08
2023-03-26T11:13:05.808Z,95.67
2023-03-26T11:14:05.831Z,95.67
2023-03-26T11:15:05.817Z,95.98
2023-03-26T11:16:05.844Z,96.91
2023-03-26T11:17:05.796Z,95.78
2023-03-26T11:18:05.780Z,95.98
2023-03-26T11:19:05.838Z,96.49
2023-03-26T11:20:05.760Z,95.88
2023-03-26T11:21:18.923Z,96.08
2023-03-26T11:22:05.705Z,97.00
2023-03-26T11:23:05.723Z,96.08
2023-03-26T11:24:06.522Z,96.19
2023-03-26T11:25:05.798Z,96.39
2023-03-26T11:26:05.690Z,96.39
2023-03-26T11:27:15.728Z,97.21
2023-03-26T11:28:05.682Z,96.19
2023-03-26T11:29:31.555Z,96.70
2023-03-26T11:30:05.636Z,97.31
2023-03-26T11:31:05.683Z,97.41
2023-03-26T11:32:05.630Z,97.41
2023-03-26T11:33:05.597Z,97.41
2023-03-26T11:34:05.632Z,96.54
2023-03-26T11:35:05.569Z,97.66
2023-03-26T11:36:05.608Z,98.07
2023-03-26T11:37:05.556Z,98.69
2023-03-26T11:38:05.548Z,98.18
2023-03-26T11:39:05.548Z,98.07
2023-03-26T11:40:05.597Z,98.07
2023-03-26T11:41:05.524Z,98.58
2023-03-26T11:42:05.493Z,97.87
2023-03-26T11:43:05.496Z,98.07
2023-03-26T11:44:05.541Z,97.87
2023-03-26T11:45:05.500Z,97.66
2023-03-26T11:46:05.531Z,98.18
2023-03-26T11:47:05.435Z,98.38
2023-03-26T11:48:05.501Z,98.07
2023-03-26T11:49:05.448Z,98.18
2023-03-26T11:50:05.465Z,97.56
2023-03-26T11:51:05.430Z,97.87
2023-03-26T11:52:05.420Z,97.46
2023-03-26T11:53:05.380Z,97.15
2023-03-26T11:54:05.366Z,97.92
2023-03-26T11:55:05.378Z,98.24
2023-03-26T11:56:05.547Z,98.44
2023-03-26T11:57:07.262Z,98.24
2023-03-26T11:58:05.325Z,98.44
2023-03-26T11:59:05.339Z,98.65
2023-03-26T12:00:05.335Z,99.11
2023-03-26T12:01:05.289Z,98.60
2023-03-26T12:02:05.341Z,97.57
2023-03-26T12:03:05.375Z,97.27
2023-03-26T12:04:05.358Z,97.67
2023-03-26T12:05:05.261Z,97.47
2023-03-26T12:06:05.224Z,97.47
2023-03-26T12:07:05.233Z,97.37
2023-03-26T12:08:05.253Z,97.27
2023-03-26T12:09:05.248Z,97.67
2023-03-26T12:10:17.983Z,97.57
2023-03-26T12:11:05.183Z,98.08
2023-03-26T12:12:05.308Z,97.47
2023-03-26T12:13:05.202Z,97.42
2023-03-26T12:14:05.137Z,97.53
2023-03-26T12:15:05.159Z,96.81
2023-03-26T12:16:05.119Z,97.74
2023-03-26T12:17:05.136Z,96.81
2023-03-26T12:18:05.159Z,97.53
2023-03-26T12:19:05.590Z,97.42
2023-03-26T12:20:05.099Z,96.30
2023-03-26T12:21:05.093Z,96.92
2023-03-26T12:22:05.121Z,97.12
2023-03-26T12:23:05.049Z,97.02
2023-03-26T12:24:05.074Z,96.92
2023-03-26T12:25:05.028Z,97.63
2023-03-26T12:26:05.027Z,97.33
2023-03-26T12:27:04.999Z,97.33
2023-03-26T12:28:05.265Z,95.89
2023-03-26T12:29:04.996Z,94.77
2023-03-26T12:30:05.016Z,96.51
2023-03-26T12:31:04.971Z,96.92
2023-03-26T12:32:05.066Z,96.81
2023-03-26T12:33:04.996Z,95.69
2023-03-26T12:34:05.044Z,95.38
2023-03-26T12:35:04.914Z,95.28
2023-03-26T12:36:04.969Z,96.30
2023-03-26T12:37:04.946Z,96.41
2023-03-26T12:38:04.916Z,96.77
2023-03-26T12:39:43.047Z,96.97
2023-03-26T12:40:19.390Z,96.26
2023-03-26T12:41:04.855Z,95.85
2023-03-26T12:43:51.548Z,96.56
2023-03-26T12:45:02.388Z,96.26
2023-03-26T12:45:07.816Z,96.51
2023-03-26T12:47:54.502Z,97.03
2023-03-26T12:48:07.315Z,97.33
2023-03-26T12:48:12.882Z,96.11
2023-03-26T12:49:12.909Z,95.70
2023-03-26T12:50:12.774Z,96.21
2023-03-26T12:51:12.732Z,94.78
2023-03-26T12:52:12.775Z,95.19
2023-03-26T12:53:12.722Z,95.70
2023-03-26T12:54:12.699Z,95.96
2023-03-26T12:55:12.742Z,96.78
2023-03-26T12:56:12.714Z,95.86
2023-03-26T12:57:13.380Z,95.56
2023-03-26T12:58:13.738Z,96.27
2023-03-26T12:59:12.649Z,96.17
2023-03-26T13:00:12.653Z,95.76
2023-03-26T13:01:12.691Z,95.65
2023-03-26T13:02:12.662Z,96.02
2023-03-26T13:03:12.755Z,96.43
2023-03-26T13:04:12.625Z,96.12
2023-03-26T13:05:12.617Z,97.75
2023-03-26T13:06:12.571Z,97.20
2023-03-26T13:07:12.582Z,95.87
2023-03-26T13:08:12.544Z,96.08
2023-03-26T13:09:12.622Z,96.59
2023-03-26T13:10:12.535Z,95.83
2023-03-26T13:11:12.553Z,93.59
2023-03-26T13:12:12.517Z,94.40
2023-03-26T13:13:12.557Z,95.62
2023-03-26T13:14:12.490Z,92.97
2023-03-26T13:15:12.485Z,95.21
2023-03-26T13:16:12.557Z,94.91
2023-03-26T13:17:12.537Z,94.40
2023-03-26T13:18:12.457Z,94.50
2023-03-26T13:19:12.466Z,95.52
2023-03-26T13:20:12.605Z,93.99
2023-03-26T13:21:12.415Z,93.93
2023-03-26T13:22:12.402Z,93.02
2023-03-26T13:23:12.408Z,92.20
2023-03-26T13:24:12.447Z,93.98
2023-03-26T13:25:12.370Z,93.57
2023-03-26T13:26:12.364Z,93.37
2023-03-26T13:27:12.374Z,93.06
2023-03-26T13:28:12.368Z,94.49
2023-03-26T13:29:12.798Z,94.33
2023-03-26T13:30:12.344Z,96.63
2023-03-26T13:31:12.384Z,96.02
2023-03-26T13:32:12.318Z,94.29
2023-03-26T13:33:12.664Z,97.96
2023-03-26T13:34:12.274Z,97.61
2023-03-26T13:35:12.368Z,96.89
2023-03-26T13:36:23.114Z,98.52
2023-03-26T13:37:12.325Z,97.81
2023-03-26T13:38:12.235Z,96.84
2023-03-26T13:39:12.264Z,97.56
2023-03-26T13:40:12.227Z,94.20
2023-03-26T13:41:12.267Z,94.81
2023-03-26T13:42:12.192Z,91.96
2023-03-26T13:43:12.187Z,90.98
2023-03-26T13:44:12.172Z,90.06
2023-03-26T13:45:12.169Z,89.45
2023-03-26T13:46:12.232Z,88.84
2023-03-26T13:47:12.182Z,92.30
2023-03-26T13:48:12.122Z,95.26
2023-03-26T13:49:12.141Z,91.79
2023-03-26T13:50:12.111Z,90.57
2023-03-26T13:51:12.101Z,91.28
2023-03-26T13:52:12.206Z,91.39
2023-03-26T13:53:18.101Z,91.28
2023-03-26T13:54:18.091Z,91.18
2023-03-26T13:55:18.069Z,89.25
2023-03-26T13:56:18.040Z,91.39
2023-03-26T13:57:12.086Z,90.98
2023-03-26T13:59:04.908Z,89.28
2023-03-26T14:00:05.919Z,90.20
2023-03-26T14:01:05.881Z,92.76
2023-03-26T14:02:05.936Z,93.77
2023-03-26T14:03:05.895Z,93.98
2023-03-26T14:04:05.917Z,95.86
2023-03-26T14:05:05.839Z,96.06
2023-03-26T14:06:05.834Z,95.76
2023-03-26T14:07:05.824Z,96.47
2023-03-26T14:08:05.848Z,97.29
2023-03-26T14:09:05.792Z,96.42
2023-03-26T14:10:05.876Z,97.44
2023-03-26T14:11:05.791Z,97.24
2023-03-26T14:12:05.761Z,96.92
2023-03-26T14:13:06.164Z,97.13
2023-03-26T14:14:05.772Z,97.85
2023-03-26T14:15:05.720Z,98.10
2023-03-26T14:16:05.769Z,97.49
2023-03-26T14:17:05.697Z,98.30
2023-03-26T14:18:05.749Z,97.28
2023-03-26T14:19:05.703Z,96.83
2023-03-26T14:20:05.691Z,96.11
2023-03-26T14:21:05.662Z,98.15
2023-03-26T14:22:05.772Z,97.44
2023-03-26T14:23:05.635Z,97.54
2023-03-26T14:24:05.718Z,96.83
2023-03-26T14:25:05.611Z,97.80
2023-03-26T14:26:05.623Z,94.74
2023-03-26T14:27:05.596Z,95.25
2023-03-26T14:28:05.605Z,94.43
2023-03-26T14:29:05.633Z,95.41
2023-03-26T14:30:05.619Z,94.59
2023-03-26T14:31:05.571Z,92.96
2023-03-26T14:32:05.586Z,91.33
2023-03-26T14:33:05.562Z,90.98
2023-03-26T14:34:05.680Z,91.39
2023-03-26T14:35:05.517Z,87.65
2023-03-26T14:36:05.552Z,88.06
2023-03-26T14:37:05.479Z,86.73
2023-03-26T14:38:05.494Z,86.83
2023-03-26T14:39:05.472Z,85.71
2023-03-26T14:40:05.492Z,86.53
2023-03-26T14:41:05.452Z,88.98
2023-03-26T14:42:05.460Z,87.65
2023-03-26T14:43:05.426Z,88.17
2023-03-26T14:44:05.453Z,86.16
2023-03-26T14:45:05.391Z,87.76
2023-03-26T14:46:05.517Z,87.55
2023-03-26T14:47:06.364Z,85.51
2023-03-26T14:48:07.826Z,86.22
2023-03-26T14:49:05.358Z,87.55
2023-03-26T14:50:05.368Z,87.92
2023-03-26T14:51:05.374Z,87.51
2023-03-26T14:52:05.351Z,85.57
2023-03-26T14:53:05.330Z,85.47
2023-03-26T14:54:05.339Z,84.72
2023-03-26T14:55:05.330Z,83.39
2023-03-26T14:56:05.282Z,82.27
2023-03-26T14:57:05.325Z,84.82
2023-03-26T14:58:05.299Z,85.22
2023-03-26T14:59:05.270Z,84.20
2023-03-26T15:00:05.232Z,84.11
2023-03-26T15:01:05.270Z,82.17
2023-03-26T15:02:05.242Z,83.39
2023-03-26T15:03:05.360Z,81.96
2023-03-26T15:04:05.203Z,83.49
2023-03-26T15:05:05.212Z,83.18
2023-03-26T15:06:05.193Z,83.29
2023-03-26T15:07:05.200Z,81.76
2023-03-26T15:08:05.173Z,82.07
2023-03-26T15:09:05.169Z,83.70
2023-03-26T15:10:05.998Z,82.47
2023-03-26T15:11:05.160Z,83.09
2023-03-26T15:12:12.141Z,83.90
2023-03-26T15:13:05.122Z,81.45
2023-03-26T15:14:05.116Z,81.66
2023-03-26T15:15:05.123Z,79.93
2023-03-26T15:16:05.161Z,79.75
2023-03-26T15:17:05.097Z,83.02
2023-03-26T15:18:05.052Z,79.66
2023-03-26T15:19:05.215Z,81.59
2023-03-26T15:20:05.051Z,81.29
2023-03-26T15:21:05.050Z,81.96
2023-03-26T15:22:05.026Z,84.14
2023-03-26T15:23:05.009Z,82.31
2023-03-26T15:24:05.005Z,81.59
2023-03-26T15:25:04.980Z,80.16
2023-03-26T15:26:04.995Z,79.75
2023-03-26T15:27:05.102Z,79.96
2023-03-26T15:28:04.940Z,79.45
2023-03-26T15:29:04.963Z,77.62
2023-03-26T15:30:04.920Z,77.78
2023-03-26T15:31:04.988Z,78.60
2023-03-26T15:32:05.024Z,81.96
2023-03-26T15:33:04.953Z,78.30
2023-03-26T15:34:04.913Z,76.80
2023-03-26T15:35:04.886Z,78.23
2023-03-26T15:36:04.889Z,77.82
2023-03-26T15:37:04.867Z,78.53
2023-03-26T15:38:04.870Z,78.33
2023-03-26T15:39:04.853Z,78.64
2023-03-26T15:40:04.853Z,78.53
2023-03-26T15:41:04.816Z,78.98
2023-03-26T15:42:04.800Z,78.67
2023-03-26T15:43:04.811Z,77.45
2023-03-26T15:44:24.814Z,77.86
2023-03-26T15:45:04.853Z,75.34
2023-03-26T15:46:04.784Z,78.30
2023-03-26T15:47:04.809Z,77.69
2023-03-26T15:48:04.875Z,80.14
2023-03-26T15:49:04.882Z,78.81
2023-03-26T15:50:04.730Z,78.50
2023-03-26T15:51:04.741Z,77.01
2023-03-26T15:52:04.707Z,77.22
2023-03-26T15:53:04.732Z,75.99
2023-03-26T15:54:04.725Z,78.95
2023-03-26T15:55:04.705Z,76.43
2023-03-26T15:56:04.689Z,75.96
2023-03-26T15:57:04.682Z,81.01
2023-03-26T15:58:04.630Z,83.19
2023-03-26T15:59:04.650Z,85.11
2023-03-26T16:00:04.614Z,87.92
2023-03-26T16:01:04.652Z,88.06
2023-03-26T16:02:04.605Z,90.97
2023-03-26T16:03:04.605Z,89.64
2023-03-26T16:04:04.576Z,90.03
2023-03-26T16:05:04.595Z,91.47
2023-03-26T16:06:04.542Z,93.98
2023-03-26T16:07:04.543Z,94.90
2023-03-26T16:08:04.546Z,95.25
2023-03-26T16:09:04.508Z,96.48
2023-03-26T16:10:04.559Z,97.00
2023-03-26T16:11:04.504Z,97.15
2023-03-26T16:12:04.468Z,97.56
2023-03-26T16:13:04.476Z,97.56
2023-03-26T16:14:04.483Z,98.59
2023-03-26T16:15:04.451Z,99.25
2023-03-26T16:16:04.574Z,98.84
2023-03-26T16:17:04.480Z,99.35
2023-03-26T16:18:04.435Z,99.46
2023-03-26T16:19:04.440Z,99.77
2023-03-26T16:20:04.384Z,99.05
2023-03-26T16:21:04.479Z,99.25
2023-03-26T16:22:04.407Z,99.99
2023-03-26T16:23:04.378Z,99.99
2023-03-26T16:24:04.346Z,99.99
2023-03-26T16:25:26.503Z,99.99
2023-03-26T16:26:04.338Z,99.99
2023-03-26T16:27:04.322Z,99.99
2023-03-26T16:28:04.302Z,99.99
2023-03-26T16:29:04.297Z,99.99
2023-03-26T16:30:04.276Z,99.99
2023-03-26T16:31:04.441Z,99.73
2023-03-26T16:32:04.368Z,99.93
2023-03-26T16:33:04.327Z,98.70
2023-03-26T16:34:04.237Z,98.66
2023-03-26T16:35:04.267Z,98.45
2023-03-26T16:36:04.281Z,98.96
2023-03-26T16:37:04.311Z,98.66
2023-03-26T16:38:04.197Z,98.96
2023-03-26T16:39:04.236Z,99.27
2023-03-26T16:40:04.176Z,99.58
2023-03-26T16:41:04.182Z,99.58
2023-03-26T16:42:06.121Z,99.58
2023-03-26T16:43:04.179Z,99.99
2023-03-26T16:44:04.129Z,99.99
2023-03-26T16:45:04.146Z,99.99
2023-03-26T16:46:04.275Z,99.99
2023-03-26T16:47:04.146Z,99.83
2023-03-26T16:48:04.145Z,99.99
2023-03-26T16:49:04.118Z,99.83
2023-03-26T16:50:08.487Z,99.99
2023-03-26T16:51:04.106Z,99.99
2023-03-26T16:52:04.077Z,99.99
2023-03-26T16:53:04.196Z,99.99
2023-03-26T16:54:04.028Z,99.99
2023-03-26T16:55:04.065Z,99.99
2023-03-26T16:56:04.017Z,99.99
2023-03-26T16:57:04.090Z,99.93
2023-03-26T16:58:04.033Z,99.99
2023-03-26T16:59:03.994Z,99.99
2023-03-26T17:00:06.387Z,99.63
2023-03-26T17:01:03.999Z,99.52
2023-03-26T17:02:04.018Z,99.99
2023-03-26T17:03:04.117Z,99.57
2023-03-26T17:04:03.924Z,99.67
2023-03-26T17:05:04.296Z,99.67
2023-03-26T17:06:03.900Z,99.99
2023-03-26T17:07:03.912Z,99.99
2023-03-26T17:08:03.887Z,99.99
2023-03-26T17:09:03.911Z,99.99
2023-03-26T17:10:03.920Z,99.99
2023-03-26T17:11:03.880Z,99.99
2023-03-26T17:12:03.827Z,99.99
2023-03-26T17:13:03.850Z,99.99
2023-03-26T17:14:03.847Z,99.99
2023-03-26T17:15:03.868Z,99.01
2023-03-26T17:16:03.842Z,98.54
2023-03-26T17:17:03.811Z,99.16
2023-03-26T17:18:03.831Z,99.99
2023-03-26T17:19:03.801Z,99.42
2023-03-26T17:20:03.808Z,99.88
2023-03-26T17:21:03.801Z,99.99
2023-03-26T17:22:03.789Z,99.99
2023-03-26T17:23:03.740Z,99.99
2023-03-26T17:24:03.725Z,99.99
2023-03-26T17:25:03.730Z,99.99